»·PEaware :: DAL480 KPDX-KMFR

DAL480 :: KPDX-KMFR

FLIGHT INFORMATION

Flight Status: Arrived
Operator:
Delta Air Lines
More flights by this operator :: More flights under this callsign
Pilot: Saso K. (7898)
Aircraft: AIRBUS A320
(A320)
More flights by this aircraft type
Origin: KPDX Portland Intl
United States
Destination: KMFR Rogue Valley Intl-Medford
United States
More flights between these airports :: More routes between these airports
Route: +MINNE5 MINNE HISKU HARPR
File this flight plan on PilotEdge
Remarks:
Altitude:
(Current/Filed)
31,000ft
Speed:
(Current/Filed)
449kts
Departed: 02-Nov-17 04:46 PM
Arrived: 02-Nov-17 05:34 PM
Distance/Time
Traveled:
194nm/0:48
Distance/Time
To Go:
Arrived

Flight Plot

Page will automatically refresh every two minutes.

Flight plan parsing failed; only flown route is shown


Map Options




Map Legend


Flown Route
Filed Route
Departure Airport
Arrival Airport
Navaid (VOR, NDB)
Fix

Horizontal Profiles

Position Reports

Time Latitude Longitude Heading Altitude Ground
Speed
02-Nov-17 16:15 45.590510 -122.595037 28 26ft 0kts
02-Nov-17 16:16 45.590510 -122.595037 28 26ft 0kts
02-Nov-17 16:17 45.590510 -122.595037 28 26ft 0kts
02-Nov-17 16:18 45.590510 -122.595037 28 26ft 0kts
02-Nov-17 16:19 45.590510 -122.595037 28 26ft 0kts
02-Nov-17 16:20 45.590510 -122.595037 28 26ft 0kts
02-Nov-17 16:21 45.590510 -122.595037 28 26ft 0kts
02-Nov-17 16:22 45.590510 -122.595037 28 26ft 0kts
02-Nov-17 16:23 45.590510 -122.595037 28 26ft 0kts
02-Nov-17 16:24 45.590510 -122.595037 28 26ft 0kts
02-Nov-17 16:25 45.590510 -122.595037 28 26ft 0kts
02-Nov-17 16:26 45.590510 -122.595037 28 26ft 0kts
02-Nov-17 16:27 45.590510 -122.595037 28 26ft 0kts
02-Nov-17 16:28 45.590510 -122.595037 28 26ft 0kts
02-Nov-17 16:29 45.590510 -122.595037 28 26ft 0kts
02-Nov-17 16:30 45.590510 -122.595037 28 26ft 0kts
02-Nov-17 16:31 45.590510 -122.595037 28 26ft 0kts
02-Nov-17 16:32 45.590510 -122.595037 28 26ft 0kts
02-Nov-17 16:33 45.590510 -122.595037 28 26ft 0kts
02-Nov-17 16:34 45.590510 -122.595037 28 26ft 0kts
02-Nov-17 16:35 45.590360 -122.595156 28 26ft 2kts
02-Nov-17 16:36 45.589825 -122.595350 304 26ft 0kts
02-Nov-17 16:37 45.590095 -122.596015 298 26ft 3kts
02-Nov-17 16:38 45.590500 -122.597054 299 26ft 0kts
02-Nov-17 16:39 45.590500 -122.597054 299 26ft 0kts
02-Nov-17 16:40 45.590500 -122.597054 299 26ft 0kts
02-Nov-17 16:41 45.590500 -122.597054 299 26ft 0kts
02-Nov-17 16:42 45.590566 -122.597223 299 26ft 2kts
02-Nov-17 16:43 45.591329 -122.599189 287 26ft 13kts
02-Nov-17 16:44 45.589346 -122.601235 116 24ft 12kts
02-Nov-17 16:45 45.586799 -122.594759 122 26ft 23kts
02-Nov-17 16:46 45.582764 -122.586463 116 25ft 16kts
02-Nov-17 16:47 45.581816 -122.584060 118 22ft 2kts
02-Nov-17 16:48 45.581338 -122.583536 181 22ft 9kts
02-Nov-17 16:49 45.580628 -122.584208 298 22ft 0kts
02-Nov-17 16:50 45.580813 -122.584678 299 22ft 25kts
02-Nov-17 16:51 45.599782 -122.631133 300 1823ft 179kts
02-Nov-17 16:52 45.627124 -122.695743 297 4577ft 240kts
02-Nov-17 16:53 45.659453 -122.775416 294 7866ft 263kts
02-Nov-17 16:54 45.663396 -122.865713 248 10994ft 269kts
02-Nov-17 16:55 45.601417 -122.926005 190 13173ft 329kts
02-Nov-17 16:56 45.512062 -122.935448 191 15816ft 343kts
02-Nov-17 16:57 45.417387 -122.946220 191 17854ft 366kts
02-Nov-17 16:58 45.316304 -122.957764 192 19789ft 380kts
02-Nov-17 16:59 45.212202 -122.968359 188 21599ft 395kts
02-Nov-17 17:00 45.110007 -122.965273 187 22917ft 404kts
02-Nov-17 17:01 44.998988 -122.961427 186 22940ft 426kts
02-Nov-17 17:02 44.885157 -122.957387 186 22939ft 425kts
02-Nov-17 17:03 44.775243 -122.953599 186 22940ft 425kts
02-Nov-17 17:04 44.662120 -122.949748 186 22944ft 424kts
02-Nov-17 17:05 44.548874 -122.945915 186 22952ft 424kts
02-Nov-17 17:06 44.438658 -122.942352 186 22966ft 424kts
02-Nov-17 17:07 44.326715 -122.938904 186 22993ft 424kts
02-Nov-17 17:08 44.217405 -122.935545 187 22985ft 424kts
02-Nov-17 17:09 44.103505 -122.932001 187 22984ft 414kts
02-Nov-17 17:10 43.992797 -122.928644 187 22977ft 412kts
02-Nov-17 17:11 43.893942 -122.925646 187 22977ft 412kts
02-Nov-17 17:12 43.781269 -122.922232 187 22977ft 412kts
02-Nov-17 17:13 43.669434 -122.918866 187 22977ft 412kts
02-Nov-17 17:14 43.557249 -122.915505 187 23013ft 412kts
02-Nov-17 17:15 43.445212 -122.912155 187 23024ft 412kts
02-Nov-17 17:16 43.332954 -122.908855 187 23023ft 412kts
02-Nov-17 17:17 43.219791 -122.905483 187 23024ft 412kts
02-Nov-17 17:18 43.106883 -122.902487 191 23027ft 408kts
02-Nov-17 17:19 43.003329 -122.926641 198 22258ft 361kts
02-Nov-17 17:20 42.911288 -122.949734 197 20879ft 334kts
02-Nov-17 17:21 42.826302 -122.971158 197 18999ft 327kts
02-Nov-17 17:22 42.742576 -122.992083 196 17171ft 320kts
02-Nov-17 17:23 42.661655 -123.007227 176 15399ft 326kts
02-Nov-17 17:24 42.599112 -122.930896 131 13846ft 344kts
02-Nov-17 17:25 42.548035 -122.835803 131 12316ft 334kts
02-Nov-17 17:26 42.500523 -122.748527 131 11125ft 324kts
02-Nov-17 17:27 42.456012 -122.667110 131 10422ft 298kts
02-Nov-17 17:28 42.415906 -122.593901 132 10045ft 261kts
02-Nov-17 17:29 42.376311 -122.534062 150 9383ft 236kts
02-Nov-17 17:30 42.328561 -122.509590 176 8593ft 221kts
02-Nov-17 17:31 42.279979 -122.517023 200 7850ft 211kts
02-Nov-17 17:32 42.235090 -122.559223 227 6956ft 211kts
02-Nov-17 17:33 42.212312 -122.626111 256 5940ft 226kts
02-Nov-17 17:34 42.220061 -122.707468 292 5080ft 234kts
02-Nov-17 17:35 42.251781 -122.775919 319 4583ft 217kts
02-Nov-17 17:36 42.291205 -122.820812 320 3686ft 179kts
02-Nov-17 17:37 42.333423 -122.851694 341 2191ft 169kts
02-Nov-17 17:38 42.370896 -122.871068 337 1323ft 118kts
02-Nov-17 17:39 42.376302 -122.874370 268 1313ft 11kts
02-Nov-17 17:52 42.369717 -122.873865 247 1321ft 0kts
02-Nov-17 17:53 42.369710 -122.873862 247 1321ft 0kts

Navigation Log

Ident Type
Flight plan parsing failed, navigation log unavailable